sensor_id;sensor_type;location;lat;lon;timestamp;P1;durP1;ratioP1;P2;durP2;ratioP2
28070;SDS011;15383;48.408;9.968;2023-06-26T00:01:23;9.52;;;6.03;;
28070;SDS011;15383;48.408;9.968;2023-06-26T00:03:49;7.93;;;5.30;;
28070;SDS011;15383;48.408;9.968;2023-06-26T00:06:14;8.85;;;5.40;;
28070;SDS011;15383;48.408;9.968;2023-06-26T00:08:40;9.75;;;5.95;;
28070;SDS011;15383;48.408;9.968;2023-06-26T00:11:06;10.82;;;5.97;;
28070;SDS011;15383;48.408;9.968;2023-06-26T00:13:31;10.05;;;5.25;;
28070;SDS011;15383;48.408;9.968;2023-06-26T00:15:57;7.80;;;5.05;;
28070;SDS011;15383;48.408;9.968;2023-06-26T00:18:22;9.80;;;5.82;;
28070;SDS011;15383;48.408;9.968;2023-06-26T00:20:48;15.27;;;5.57;;
28070;SDS011;15383;48.408;9.968;2023-06-26T00:23:16;7.43;;;4.80;;
28070;SDS011;15383;48.408;9.968;2023-06-26T00:25:42;8.75;;;5.57;;
28070;SDS011;15383;48.408;9.968;2023-06-26T00:28:08;9.32;;;5.28;;
28070;SDS011;15383;48.408;9.968;2023-06-26T00:30:34;9.02;;;5.68;;
28070;SDS011;15383;48.408;9.968;2023-06-26T00:33:00;8.45;;;5.20;;
28070;SDS011;15383;48.408;9.968;2023-06-26T00:35:26;10.30;;;5.65;;
28070;SDS011;15383;48.408;9.968;2023-06-26T00:37:52;10.85;;;5.32;;
28070;SDS011;15383;48.408;9.968;2023-06-26T00:40:17;12.90;;;6.28;;
28070;SDS011;15383;48.408;9.968;2023-06-26T00:42:43;11.05;;;5.60;;
28070;SDS011;15383;48.408;9.968;2023-06-26T00:45:09;9.68;;;5.80;;
28070;SDS011;15383;48.408;9.968;2023-06-26T00:47:34;10.25;;;6.22;;
28070;SDS011;15383;48.408;9.968;2023-06-26T00:50:01;8.57;;;5.75;;
28070;SDS011;15383;48.408;9.968;2023-06-26T00:52:27;13.07;;;6.03;;
28070;SDS011;15383;48.408;9.968;2023-06-26T00:54:52;11.02;;;5.75;;
28070;SDS011;15383;48.408;9.968;2023-06-26T00:57:18;9.10;;;5.70;;
28070;SDS011;15383;48.408;9.968;2023-06-26T00:59:44;10.50;;;5.82;;
28070;SDS011;15383;48.408;9.968;2023-06-26T01:02:10;10.82;;;5.93;;
28070;SDS011;15383;48.408;9.968;2023-06-26T01:04:36;11.38;;;6.00;;
28070;SDS011;15383;48.408;9.968;2023-06-26T01:07:02;12.60;;;6.45;;
28070;SDS011;15383;48.408;9.968;2023-06-26T01:09:28;11.10;;;5.85;;
28070;SDS011;15383;48.408;9.968;2023-06-26T01:11:54;11.05;;;6.22;;
28070;SDS011;15383;48.408;9.968;2023-06-26T01:14:20;10.30;;;6.38;;
28070;SDS011;15383;48.408;9.968;2023-06-26T01:16:46;9.55;;;5.65;;
28070;SDS011;15383;48.408;9.968;2023-06-26T01:19:17;10.48;;;5.85;;
28070;SDS011;15383;48.408;9.968;2023-06-26T01:21:54;10.30;;;6.20;;
28070;SDS011;15383;48.408;9.968;2023-06-26T01:24:26;10.05;;;5.80;;
28070;SDS011;15383;48.408;9.968;2023-06-26T01:26:58;9.07;;;5.55;;
28070;SDS011;15383;48.408;9.968;2023-06-26T01:29:25;10.55;;;6.10;;
28070;SDS011;15383;48.408;9.968;2023-06-26T01:31:53;9.75;;;5.68;;
28070;SDS011;15383;48.408;9.968;2023-06-26T01:34:18;14.32;;;6.50;;
28070;SDS011;15383;48.408;9.968;2023-06-26T01:36:45;12.18;;;6.65;;
28070;SDS011;15383;48.408;9.968;2023-06-26T01:39:13;14.10;;;6.68;;
28070;SDS011;15383;48.408;9.968;2023-06-26T01:41:40;12.85;;;6.75;;
28070;SDS011;15383;48.408;9.968;2023-06-26T01:46:39;11.23;;;5.85;;
28070;SDS011;15383;48.408;9.968;2023-06-26T01:49:36;12.32;;;6.30;;
28070;SDS011;15383;48.408;9.968;2023-06-26T01:54:52;11.18;;;6.25;;
28070;SDS011;15383;48.408;9.968;2023-06-26T01:57:21;16.27;;;7.00;;
28070;SDS011;15383;48.408;9.968;2023-06-26T01:59:51;11.80;;;6.47;;
28070;SDS011;15383;48.408;9.968;2023-06-26T02:02:19;14.13;;;6.53;;
28070;SDS011;15383;48.408;9.968;2023-06-26T02:04:44;11.13;;;6.32;;
28070;SDS011;15383;48.408;9.968;2023-06-26T02:07:13;13.40;;;6.30;;
28070;SDS011;15383;48.408;9.968;2023-06-26T02:09:39;14.05;;;6.65;;
28070;SDS011;15383;48.408;9.968;2023-06-26T02:12:04;14.07;;;6.60;;
28070;SDS011;15383;48.408;9.968;2023-06-26T02:14:30;11.25;;;6.63;;
28070;SDS011;15383;48.408;9.968;2023-06-26T02:16:56;11.35;;;6.20;;
28070;SDS011;15383;48.408;9.968;2023-06-26T02:19:22;11.07;;;6.10;;
28070;SDS011;15383;48.408;9.968;2023-06-26T02:21:51;13.65;;;6.28;;
28070;SDS011;15383;48.408;9.968;2023-06-26T02:24:16;12.63;;;6.00;;
28070;SDS011;15383;48.408;9.968;2023-06-26T02:26:42;11.52;;;6.63;;
28070;SDS011;15383;48.408;9.968;2023-06-26T02:29:07;11.10;;;6.65;;
28070;SDS011;15383;48.408;9.968;2023-06-26T02:31:33;10.25;;;5.85;;
28070;SDS011;15383;48.408;9.968;2023-06-26T02:33:59;13.07;;;6.72;;
28070;SDS011;15383;48.408;9.968;2023-06-26T02:36:24;10.82;;;6.10;;
28070;SDS011;15383;48.408;9.968;2023-06-26T02:38:50;23.20;;;6.68;;
28070;SDS011;15383;48.408;9.968;2023-06-26T02:41:15;11.95;;;6.78;;
28070;SDS011;15383;48.408;9.968;2023-06-26T02:43:41;9.75;;;5.78;;
28070;SDS011;15383;48.408;9.968;2023-06-26T02:46:07;11.25;;;5.75;;
28070;SDS011;15383;48.408;9.968;2023-06-26T02:48:32;11.15;;;6.30;;
28070;SDS011;15383;48.408;9.968;2023-06-26T02:50:58;10.65;;;6.13;;
28070;SDS011;15383;48.408;9.968;2023-06-26T02:53:24;11.15;;;6.30;;
28070;SDS011;15383;48.408;9.968;2023-06-26T02:55:49;12.20;;;6.65;;
28070;SDS011;15383;48.408;9.968;2023-06-26T02:58:15;11.07;;;6.63;;
28070;SDS011;15383;48.408;9.968;2023-06-26T03:00:41;18.13;;;7.18;;
28070;SDS011;15383;48.408;9.968;2023-06-26T03:03:08;12.13;;;6.43;;
28070;SDS011;15383;48.408;9.968;2023-06-26T03:05:34;19.13;;;6.68;;
28070;SDS011;15383;48.408;9.968;2023-06-26T03:08:00;11.27;;;6.15;;
28070;SDS011;15383;48.408;9.968;2023-06-26T03:10:27;11.32;;;6.15;;
28070;SDS011;15383;48.408;9.968;2023-06-26T03:12:53;12.82;;;6.68;;
28070;SDS011;15383;48.408;9.968;2023-06-26T03:15:18;9.50;;;5.78;;
28070;SDS011;15383;48.408;9.968;2023-06-26T03:17:44;14.75;;;6.90;;
28070;SDS011;15383;48.408;9.968;2023-06-26T03:20:10;10.00;;;5.95;;
28070;SDS011;15383;48.408;9.968;2023-06-26T03:22:36;12.20;;;6.78;;
28070;SDS011;15383;48.408;9.968;2023-06-26T03:25:04;11.23;;;6.05;;
28070;SDS011;15383;48.408;9.968;2023-06-26T03:27:30;11.27;;;6.65;;
28070;SDS011;15383;48.408;9.968;2023-06-26T03:29:55;18.02;;;6.30;;
28070;SDS011;15383;48.408;9.968;2023-06-26T03:32:21;13.70;;;6.85;;
28070;SDS011;15383;48.408;9.968;2023-06-26T03:34:47;13.10;;;6.75;;
28070;SDS011;15383;48.408;9.968;2023-06-26T03:37:12;10.38;;;6.30;;
28070;SDS011;15383;48.408;9.968;2023-06-26T03:39:38;11.07;;;6.43;;
28070;SDS011;15383;48.408;9.968;2023-06-26T03:42:04;10.55;;;6.30;;
28070;SDS011;15383;48.408;9.968;2023-06-26T03:44:30;10.30;;;6.35;;
28070;SDS011;15383;48.408;9.968;2023-06-26T03:46:55;11.30;;;5.95;;
28070;SDS011;15383;48.408;9.968;2023-06-26T03:49:21;12.45;;;6.72;;
28070;SDS011;15383;48.408;9.968;2023-06-26T03:51:47;11.60;;;6.13;;
28070;SDS011;15383;48.408;9.968;2023-06-26T03:54:12;10.80;;;6.68;;
28070;SDS011;15383;48.408;9.968;2023-06-26T03:56:38;11.02;;;6.38;;
28070;SDS011;15383;48.408;9.968;2023-06-26T03:59:04;15.07;;;6.18;;
28070;SDS011;15383;48.408;9.968;2023-06-26T04:01:29;10.85;;;5.90;;
28070;SDS011;15383;48.408;9.968;2023-06-26T04:03:55;12.07;;;6.38;;
28070;SDS011;15383;48.408;9.968;2023-06-26T04:06:20;11.82;;;6.25;;
28070;SDS011;15383;48.408;9.968;2023-06-26T04:08:46;15.13;;;6.70;;
28070;SDS011;15383;48.408;9.968;2023-06-26T04:11:12;9.25;;;5.90;;
28070;SDS011;15383;48.408;9.968;2023-06-26T04:13:38;12.48;;;5.80;;
28070;SDS011;15383;48.408;9.968;2023-06-26T04:16:04;11.10;;;6.57;;
28070;SDS011;15383;48.408;9.968;2023-06-26T04:18:30;13.85;;;6.03;;
28070;SDS011;15383;48.408;9.968;2023-06-26T04:23:38;11.00;;;5.95;;
28070;SDS011;15383;48.408;9.968;2023-06-26T04:26:04;14.30;;;6.57;;
28070;SDS011;15383;48.408;9.968;2023-06-26T04:28:31;9.50;;;5.82;;
28070;SDS011;15383;48.408;9.968;2023-06-26T04:30:58;10.32;;;6.70;;
28070;SDS011;15383;48.408;9.968;2023-06-26T04:33:25;11.70;;;5.30;;
28070;SDS011;15383;48.408;9.968;2023-06-26T04:35:51;16.83;;;6.55;;
28070;SDS011;15383;48.408;9.968;2023-06-26T04:38:18;9.93;;;6.30;;
28070;SDS011;15383;48.408;9.968;2023-06-26T04:40:44;12.60;;;6.05;;
28070;SDS011;15383;48.408;9.968;2023-06-26T04:43:10;14.95;;;6.15;;
28070;SDS011;15383;48.408;9.968;2023-06-26T04:45:36;18.33;;;6.45;;
28070;SDS011;15383;48.408;9.968;2023-06-26T04:48:02;11.02;;;6.20;;
28070;SDS011;15383;48.408;9.968;2023-06-26T04:50:31;13.10;;;6.32;;
28070;SDS011;15383;48.408;9.968;2023-06-26T04:52:57;13.18;;;6.00;;
28070;SDS011;15383;48.408;9.968;2023-06-26T04:55:26;10.65;;;6.55;;
28070;SDS011;15383;48.408;9.968;2023-06-26T04:57:52;12.50;;;6.82;;
28070;SDS011;15383;48.408;9.968;2023-06-26T05:00:18;12.82;;;6.22;;
28070;SDS011;15383;48.408;9.968;2023-06-26T05:02:44;10.27;;;6.43;;
28070;SDS011;15383;48.408;9.968;2023-06-26T05:05:10;22.90;;;6.30;;
28070;SDS011;15383;48.408;9.968;2023-06-26T05:07:36;10.88;;;6.43;;
28070;SDS011;15383;48.408;9.968;2023-06-26T05:10:03;11.52;;;6.20;;
28070;SDS011;15383;48.408;9.968;2023-06-26T05:12:29;13.00;;;6.32;;
28070;SDS011;15383;48.408;9.968;2023-06-26T05:14:54;11.18;;;6.75;;
28070;SDS011;15383;48.408;9.968;2023-06-26T05:17:20;13.57;;;6.57;;
28070;SDS011;15383;48.408;9.968;2023-06-26T05:19:46;12.75;;;6.43;;
28070;SDS011;15383;48.408;9.968;2023-06-26T05:22:12;9.50;;;6.18;;
28070;SDS011;15383;48.408;9.968;2023-06-26T05:24:38;12.25;;;6.30;;
28070;SDS011;15383;48.408;9.968;2023-06-26T05:27:05;11.48;;;5.43;;
28070;SDS011;15383;48.408;9.968;2023-06-26T05:29:31;11.40;;;6.93;;
28070;SDS011;15383;48.408;9.968;2023-06-26T05:31:58;11.02;;;5.78;;
28070;SDS011;15383;48.408;9.968;2023-06-26T05:34:24;11.57;;;7.38;;
28070;SDS011;15383;48.408;9.968;2023-06-26T05:36:55;13.25;;;6.93;;
28070;SDS011;15383;48.408;9.968;2023-06-26T05:39:23;12.90;;;6.85;;
28070;SDS011;15383;48.408;9.968;2023-06-26T05:41:49;15.00;;;7.90;;
28070;SDS011;15383;48.408;9.968;2023-06-26T05:44:15;8.90;;;5.20;;
28070;SDS011;15383;48.408;9.968;2023-06-26T05:46:41;14.43;;;6.43;;
28070;SDS011;15383;48.408;9.968;2023-06-26T05:49:07;12.13;;;6.57;;
28070;SDS011;15383;48.408;9.968;2023-06-26T05:51:39;12.25;;;5.80;;
28070;SDS011;15383;48.408;9.968;2023-06-26T05:54:05;12.48;;;6.60;;
28070;SDS011;15383;48.408;9.968;2023-06-26T05:56:30;12.82;;;6.93;;
28070;SDS011;15383;48.408;9.968;2023-06-26T05:58:57;15.30;;;6.28;;
28070;SDS011;15383;48.408;9.968;2023-06-26T06:01:24;13.98;;;7.57;;
28070;SDS011;15383;48.408;9.968;2023-06-26T06:03:49;12.15;;;6.30;;
28070;SDS011;15383;48.408;9.968;2023-06-26T06:06:15;19.65;;;6.97;;
28070;SDS011;15383;48.408;9.968;2023-06-26T06:08:41;13.43;;;6.30;;
28070;SDS011;15383;48.408;9.968;2023-06-26T06:11:07;15.90;;;7.15;;
28070;SDS011;15383;48.408;9.968;2023-06-26T06:13:35;16.80;;;7.65;;
28070;SDS011;15383;48.408;9.968;2023-06-26T06:16:01;13.55;;;6.45;;
28070;SDS011;15383;48.408;9.968;2023-06-26T06:18:26;11.63;;;6.25;;
28070;SDS011;15383;48.408;9.968;2023-06-26T06:20:52;12.27;;;7.30;;
28070;SDS011;15383;48.408;9.968;2023-06-26T06:23:18;9.90;;;5.78;;
28070;SDS011;15383;48.408;9.968;2023-06-26T06:25:44;15.15;;;5.65;;
28070;SDS011;15383;48.408;9.968;2023-06-26T06:28:10;18.50;;;7.22;;
28070;SDS011;15383;48.408;9.968;2023-06-26T06:30:36;16.45;;;6.38;;
28070;SDS011;15383;48.408;9.968;2023-06-26T06:33:01;13.98;;;6.20;;
28070;SDS011;15383;48.408;9.968;2023-06-26T06:35:28;17.02;;;6.57;;
28070;SDS011;15383;48.408;9.968;2023-06-26T06:37:53;15.15;;;6.57;;
28070;SDS011;15383;48.408;9.968;2023-06-26T06:40:19;13.52;;;5.88;;
28070;SDS011;15383;48.408;9.968;2023-06-26T06:42:47;11.38;;;6.22;;
28070;SDS011;15383;48.408;9.968;2023-06-26T06:45:13;12.88;;;6.10;;
28070;SDS011;15383;48.408;9.968;2023-06-26T06:47:38;15.77;;;6.43;;
28070;SDS011;15383;48.408;9.968;2023-06-26T06:50:04;13.10;;;6.75;;
28070;SDS011;15383;48.408;9.968;2023-06-26T06:52:34;10.43;;;6.65;;
28070;SDS011;15383;48.408;9.968;2023-06-26T06:55:05;12.90;;;5.97;;
28070;SDS011;15383;48.408;9.968;2023-06-26T06:57:33;9.40;;;6.22;;
28070;SDS011;15383;48.408;9.968;2023-06-26T07:00:06;11.50;;;5.63;;
28070;SDS011;15383;48.408;9.968;2023-06-26T07:02:34;11.68;;;5.97;;
28070;SDS011;15383;48.408;9.968;2023-06-26T07:05:03;11.20;;;5.55;;
28070;SDS011;15383;48.408;9.968;2023-06-26T07:07:30;11.38;;;6.20;;
28070;SDS011;15383;48.408;9.968;2023-06-26T07:09:58;11.60;;;7.10;;
28070;SDS011;15383;48.408;9.968;2023-06-26T07:12:29;17.08;;;6.25;;
28070;SDS011;15383;48.408;9.968;2023-06-26T07:14:55;13.65;;;6.72;;
28070;SDS011;15383;48.408;9.968;2023-06-26T07:17:23;11.57;;;6.55;;
28070;SDS011;15383;48.408;9.968;2023-06-26T07:19:49;18.38;;;6.68;;
28070;SDS011;15383;48.408;9.968;2023-06-26T07:22:15;12.20;;;6.97;;
28070;SDS011;15383;48.408;9.968;2023-06-26T07:24:41;11.32;;;6.60;;
28070;SDS011;15383;48.408;9.968;2023-06-26T07:27:06;11.98;;;6.53;;
28070;SDS011;15383;48.408;9.968;2023-06-26T07:29:32;18.20;;;6.78;;
28070;SDS011;15383;48.408;9.968;2023-06-26T07:31:58;13.18;;;6.68;;
28070;SDS011;15383;48.408;9.968;2023-06-26T07:34:24;11.35;;;6.97;;
28070;SDS011;15383;48.408;9.968;2023-06-26T07:36:49;12.02;;;7.10;;
28070;SDS011;15383;48.408;9.968;2023-06-26T07:39:15;12.90;;;6.05;;
28070;SDS011;15383;48.408;9.968;2023-06-26T07:41:41;13.05;;;7.38;;
28070;SDS011;15383;48.408;9.968;2023-06-26T07:44:06;11.02;;;6.50;;
28070;SDS011;15383;48.408;9.968;2023-06-26T07:46:32;11.40;;;6.63;;
28070;SDS011;15383;48.408;9.968;2023-06-26T07:48:58;11.43;;;6.07;;
28070;SDS011;15383;48.408;9.968;2023-06-26T07:51:23;15.00;;;6.25;;
28070;SDS011;15383;48.408;9.968;2023-06-26T07:53:49;10.57;;;5.95;;
28070;SDS011;15383;48.408;9.968;2023-06-26T07:56:15;11.65;;;6.10;;
28070;SDS011;15383;48.408;9.968;2023-06-26T07:58:40;12.98;;;6.28;;
28070;SDS011;15383;48.408;9.968;2023-06-26T08:01:06;8.23;;;5.70;;
28070;SDS011;15383;48.408;9.968;2023-06-26T08:03:31;8.95;;;5.57;;
28070;SDS011;15383;48.408;9.968;2023-06-26T08:05:57;11.18;;;6.18;;
28070;SDS011;15383;48.408;9.968;2023-06-26T08:08:23;10.30;;;6.30;;
28070;SDS011;15383;48.408;9.968;2023-06-26T08:10:48;9.18;;;5.55;;
28070;SDS011;15383;48.408;9.968;2023-06-26T08:13:14;12.25;;;6.60;;
28070;SDS011;15383;48.408;9.968;2023-06-26T08:15:39;10.43;;;6.00;;
28070;SDS011;15383;48.408;9.968;2023-06-26T08:18:05;12.65;;;5.93;;
28070;SDS011;15383;48.408;9.968;2023-06-26T08:20:31;9.05;;;5.50;;
28070;SDS011;15383;48.408;9.968;2023-06-26T08:22:56;9.45;;;5.80;;
28070;SDS011;15383;48.408;9.968;2023-06-26T08:25:22;9.82;;;5.45;;
28070;SDS011;15383;48.408;9.968;2023-06-26T08:27:47;10.10;;;6.10;;
28070;SDS011;15383;48.408;9.968;2023-06-26T08:30:16;8.80;;;5.50;;
28070;SDS011;15383;48.408;9.968;2023-06-26T08:32:41;8.48;;;5.13;;
28070;SDS011;15383;48.408;9.968;2023-06-26T08:35:07;9.45;;;5.57;;
28070;SDS011;15383;48.408;9.968;2023-06-26T08:37:35;10.13;;;5.13;;
28070;SDS011;15383;48.408;9.968;2023-06-26T08:40:00;12.90;;;4.93;;
28070;SDS011;15383;48.408;9.968;2023-06-26T08:42:26;11.52;;;5.65;;
28070;SDS011;15383;48.408;9.968;2023-06-26T08:44:52;9.55;;;4.95;;
28070;SDS011;15383;48.408;9.968;2023-06-26T08:47:17;13.23;;;4.75;;
28070;SDS011;15383;48.408;9.968;2023-06-26T08:52:28;9.55;;;5.65;;
28070;SDS011;15383;48.408;9.968;2023-06-26T08:55:02;15.00;;;5.82;;
28070;SDS011;15383;48.408;9.968;2023-06-26T08:57:31;10.73;;;4.60;;
28070;SDS011;15383;48.408;9.968;2023-06-26T08:59:57;21.35;;;5.78;;
28070;SDS011;15383;48.408;9.968;2023-06-26T09:02:23;5.47;;;3.25;;
28070;SDS011;15383;48.408;9.968;2023-06-26T09:04:49;10.02;;;4.95;;
28070;SDS011;15383;48.408;9.968;2023-06-26T09:07:15;13.07;;;5.28;;
28070;SDS011;15383;48.408;9.968;2023-06-26T09:09:41;17.52;;;5.30;;
28070;SDS011;15383;48.408;9.968;2023-06-26T09:12:10;8.68;;;5.10;;
28070;SDS011;15383;48.408;9.968;2023-06-26T09:14:39;9.93;;;5.45;;
28070;SDS011;15383;48.408;9.968;2023-06-26T09:17:08;11.68;;;5.18;;
28070;SDS011;15383;48.408;9.968;2023-06-26T09:19:36;5.55;;;3.92;;
28070;SDS011;15383;48.408;9.968;2023-06-26T09:22:03;6.25;;;3.97;;
28070;SDS011;15383;48.408;9.968;2023-06-26T09:24:28;6.85;;;3.90;;
28070;SDS011;15383;48.408;9.968;2023-06-26T09:26:55;7.82;;;4.30;;
28070;SDS011;15383;48.408;9.968;2023-06-26T09:29:21;6.32;;;3.60;;
28070;SDS011;15383;48.408;9.968;2023-06-26T09:31:47;5.63;;;3.60;;
28070;SDS011;15383;48.408;9.968;2023-06-26T09:34:12;8.38;;;3.70;;
28070;SDS011;15383;48.408;9.968;2023-06-26T09:36:38;10.93;;;4.55;;
28070;SDS011;15383;48.408;9.968;2023-06-26T09:39:09;6.18;;;3.92;;
28070;SDS011;15383;48.408;9.968;2023-06-26T09:41:43;5.55;;;3.63;;
28070;SDS011;15383;48.408;9.968;2023-06-26T09:44:10;7.18;;;4.15;;
28070;SDS011;15383;48.408;9.968;2023-06-26T09:49:20;8.02;;;4.82;;
28070;SDS011;15383;48.408;9.968;2023-06-26T09:51:46;6.68;;;4.22;;
28070;SDS011;15383;48.408;9.968;2023-06-26T09:54:15;10.05;;;4.22;;
28070;SDS011;15383;48.408;9.968;2023-06-26T09:56:45;8.15;;;4.65;;
28070;SDS011;15383;48.408;9.968;2023-06-26T09:59:11;8.02;;;4.18;;
28070;SDS011;15383;48.408;9.968;2023-06-26T10:01:39;4.95;;;3.80;;
28070;SDS011;15383;48.408;9.968;2023-06-26T10:04:06;6.53;;;4.20;;
28070;SDS011;15383;48.408;9.968;2023-06-26T10:06:36;6.63;;;4.32;;
28070;SDS011;15383;48.408;9.968;2023-06-26T10:09:03;5.53;;;4.00;;
28070;SDS011;15383;48.408;9.968;2023-06-26T10:17:06;4.80;;;3.75;;
28070;SDS011;15383;48.408;9.968;2023-06-26T10:19:35;6.50;;;4.65;;
28070;SDS011;15383;48.408;9.968;2023-06-26T10:22:04;7.63;;;4.20;;
28070;SDS011;15383;48.408;9.968;2023-06-26T10:24:31;9.57;;;3.67;;
28070;SDS011;15383;48.408;9.968;2023-06-26T10:27:19;7.43;;;4.27;;
28070;SDS011;15383;48.408;9.968;2023-06-26T10:30:06;7.15;;;4.30;;
28070;SDS011;15383;48.408;9.968;2023-06-26T10:32:37;32.33;;;4.82;;
28070;SDS011;15383;48.408;9.968;2023-06-26T10:35:05;20.35;;;4.53;;
28070;SDS011;15383;48.408;9.968;2023-06-26T10:38:05;6.50;;;4.32;;
28070;SDS011;15383;48.408;9.968;2023-06-26T10:40:41;12.10;;;3.78;;
28070;SDS011;15383;48.408;9.968;2023-06-26T10:43:09;6.50;;;4.22;;
28070;SDS011;15383;48.408;9.968;2023-06-26T10:45:37;10.32;;;4.03;;
28070;SDS011;15383;48.408;9.968;2023-06-26T10:48:08;6.97;;;4.00;;
28070;SDS011;15383;48.408;9.968;2023-06-26T10:50:33;6.93;;;4.13;;
28070;SDS011;15383;48.408;9.968;2023-06-26T10:55:39;6.90;;;4.18;;
28070;SDS011;15383;48.408;9.968;2023-06-26T11:01:13;9.00;;;4.70;;
28070;SDS011;15383;48.408;9.968;2023-06-26T11:03:48;6.75;;;4.10;;
28070;SDS011;15383;48.408;9.968;2023-06-26T11:06:26;6.40;;;4.53;;
28070;SDS011;15383;48.408;9.968;2023-06-26T11:09:26;12.60;;;5.35;;
28070;SDS011;15383;48.408;9.968;2023-06-26T11:14:24;8.23;;;4.55;;
28070;SDS011;15383;48.408;9.968;2023-06-26T11:16:51;5.72;;;4.20;;
28070;SDS011;15383;48.408;9.968;2023-06-26T11:19:18;6.45;;;4.30;;
28070;SDS011;15383;48.408;9.968;2023-06-26T11:21:44;7.28;;;4.45;;
28070;SDS011;15383;48.408;9.968;2023-06-26T11:24:11;5.65;;;4.25;;
28070;SDS011;15383;48.408;9.968;2023-06-26T11:26:38;7.65;;;4.85;;
28070;SDS011;15383;48.408;9.968;2023-06-26T11:31:35;7.43;;;4.45;;
28070;SDS011;15383;48.408;9.968;2023-06-26T11:34:04;6.70;;;4.68;;
28070;SDS011;15383;48.408;9.968;2023-06-26T11:36:36;7.90;;;4.63;;
28070;SDS011;15383;48.408;9.968;2023-06-26T11:39:06;7.85;;;4.53;;
28070;SDS011;15383;48.408;9.968;2023-06-26T11:41:33;6.07;;;4.20;;
28070;SDS011;15383;48.408;9.968;2023-06-26T11:44:10;9.48;;;4.65;;
28070;SDS011;15383;48.408;9.968;2023-06-26T11:46:36;7.32;;;5.07;;
28070;SDS011;15383;48.408;9.968;2023-06-26T11:49:03;7.53;;;4.63;;
28070;SDS011;15383;48.408;9.968;2023-06-26T11:51:30;9.43;;;4.57;;
28070;SDS011;15383;48.408;9.968;2023-06-26T11:53:55;8.98;;;5.43;;
28070;SDS011;15383;48.408;9.968;2023-06-26T11:56:21;6.95;;;4.78;;
28070;SDS011;15383;48.408;9.968;2023-06-26T12:01:33;7.60;;;4.88;;
28070;SDS011;15383;48.408;9.968;2023-06-26T12:04:01;10.27;;;4.70;;
28070;SDS011;15383;48.408;9.968;2023-06-26T12:06:28;7.95;;;4.78;;
28070;SDS011;15383;48.408;9.968;2023-06-26T12:08:56;12.77;;;5.22;;
28070;SDS011;15383;48.408;9.968;2023-06-26T12:11:24;8.63;;;4.93;;
28070;SDS011;15383;48.408;9.968;2023-06-26T12:13:50;8.95;;;4.40;;
28070;SDS011;15383;48.408;9.968;2023-06-26T12:16:17;9.80;;;4.30;;
28070;SDS011;15383;48.408;9.968;2023-06-26T12:18:43;9.52;;;5.13;;
28070;SDS011;15383;48.408;9.968;2023-06-26T12:21:09;9.75;;;4.80;;
28070;SDS011;15383;48.408;9.968;2023-06-26T12:24:01;6.97;;;4.80;;
28070;SDS011;15383;48.408;9.968;2023-06-26T12:26:27;8.52;;;4.75;;
28070;SDS011;15383;48.408;9.968;2023-06-26T12:29:04;8.90;;;5.38;;
28070;SDS011;15383;48.408;9.968;2023-06-26T12:31:31;7.85;;;4.72;;
28070;SDS011;15383;48.408;9.968;2023-06-26T12:33:58;7.43;;;5.40;;
28070;SDS011;15383;48.408;9.968;2023-06-26T12:36:24;11.13;;;5.68;;
28070;SDS011;15383;48.408;9.968;2023-06-26T12:38:52;12.25;;;5.05;;
28070;SDS011;15383;48.408;9.968;2023-06-26T12:41:19;10.70;;;5.15;;
28070;SDS011;15383;48.408;9.968;2023-06-26T12:43:45;8.13;;;5.20;;
28070;SDS011;15383;48.408;9.968;2023-06-26T12:46:11;10.02;;;5.10;;
28070;SDS011;15383;48.408;9.968;2023-06-26T12:48:43;8.18;;;5.40;;
28070;SDS011;15383;48.408;9.968;2023-06-26T12:51:12;7.47;;;5.28;;
28070;SDS011;15383;48.408;9.968;2023-06-26T12:53:39;7.63;;;5.30;;
28070;SDS011;15383;48.408;9.968;2023-06-26T12:56:06;9.55;;;5.72;;
28070;SDS011;15383;48.408;9.968;2023-06-26T12:58:33;9.45;;;5.10;;
28070;SDS011;15383;48.408;9.968;2023-06-26T13:01:03;7.47;;;4.97;;
28070;SDS011;15383;48.408;9.968;2023-06-26T13:03:30;8.00;;;4.55;;
28070;SDS011;15383;48.408;9.968;2023-06-26T13:05:56;7.55;;;5.35;;
28070;SDS011;15383;48.408;9.968;2023-06-26T13:08:22;10.05;;;5.75;;
28070;SDS011;15383;48.408;9.968;2023-06-26T13:10:48;8.60;;;4.63;;
28070;SDS011;15383;48.408;9.968;2023-06-26T13:13:14;8.38;;;5.07;;
28070;SDS011;15383;48.408;9.968;2023-06-26T13:15:39;7.25;;;4.30;;
28070;SDS011;15383;48.408;9.968;2023-06-26T13:18:05;8.95;;;5.03;;
28070;SDS011;15383;48.408;9.968;2023-06-26T13:20:31;6.78;;;5.03;;
28070;SDS011;15383;48.408;9.968;2023-06-26T13:22:56;9.82;;;4.25;;
28070;SDS011;15383;48.408;9.968;2023-06-26T13:25:22;10.98;;;5.60;;
28070;SDS011;15383;48.408;9.968;2023-06-26T13:27:49;8.68;;;5.25;;
28070;SDS011;15383;48.408;9.968;2023-06-26T13:30:18;13.23;;;5.07;;
28070;SDS011;15383;48.408;9.968;2023-06-26T13:32:44;12.68;;;5.10;;
28070;SDS011;15383;48.408;9.968;2023-06-26T13:35:11;10.07;;;5.55;;
28070;SDS011;15383;48.408;9.968;2023-06-26T13:37:36;11.80;;;6.05;;
28070;SDS011;15383;48.408;9.968;2023-06-26T13:40:02;9.18;;;5.75;;
28070;SDS011;15383;48.408;9.968;2023-06-26T13:42:28;8.52;;;6.22;;
28070;SDS011;15383;48.408;9.968;2023-06-26T13:44:54;8.00;;;5.50;;
28070;SDS011;15383;48.408;9.968;2023-06-26T13:47:20;7.20;;;4.78;;
28070;SDS011;15383;48.408;9.968;2023-06-26T13:49:46;11.10;;;5.80;;
28070;SDS011;15383;48.408;9.968;2023-06-26T13:52:12;11.15;;;5.20;;
28070;SDS011;15383;48.408;9.968;2023-06-26T13:54:37;10.88;;;5.93;;
28070;SDS011;15383;48.408;9.968;2023-06-26T13:57:05;9.35;;;5.93;;
28070;SDS011;15383;48.408;9.968;2023-06-26T13:59:31;9.40;;;6.10;;
28070;SDS011;15383;48.408;9.968;2023-06-26T14:01:57;8.35;;;5.60;;
28070;SDS011;15383;48.408;9.968;2023-06-26T14:04:24;12.95;;;5.13;;
28070;SDS011;15383;48.408;9.968;2023-06-26T14:06:50;10.00;;;5.60;;
28070;SDS011;15383;48.408;9.968;2023-06-26T14:09:19;9.25;;;4.97;;
28070;SDS011;15383;48.408;9.968;2023-06-26T14:11:44;11.25;;;4.95;;
28070;SDS011;15383;48.408;9.968;2023-06-26T14:14:10;9.93;;;5.45;;
28070;SDS011;15383;48.408;9.968;2023-06-26T14:16:36;9.25;;;5.90;;
28070;SDS011;15383;48.408;9.968;2023-06-26T14:19:05;12.93;;;5.47;;
28070;SDS011;15383;48.408;9.968;2023-06-26T14:21:31;9.52;;;5.90;;
28070;SDS011;15383;48.408;9.968;2023-06-26T14:23:58;15.38;;;6.22;;
28070;SDS011;15383;48.408;9.968;2023-06-26T14:26:24;7.05;;;5.22;;
28070;SDS011;15383;48.408;9.968;2023-06-26T14:28:50;7.88;;;5.38;;
28070;SDS011;15383;48.408;9.968;2023-06-26T14:31:15;10.13;;;5.22;;
28070;SDS011;15383;48.408;9.968;2023-06-26T14:33:41;12.45;;;5.53;;
28070;SDS011;15383;48.408;9.968;2023-06-26T14:36:07;13.02;;;5.65;;
28070;SDS011;15383;48.408;9.968;2023-06-26T14:38:32;8.20;;;5.20;;
28070;SDS011;15383;48.408;9.968;2023-06-26T14:41:01;15.68;;;6.30;;
28070;SDS011;15383;48.408;9.968;2023-06-26T14:43:26;9.95;;;5.57;;
28070;SDS011;15383;48.408;9.968;2023-06-26T14:45:52;9.38;;;5.63;;
28070;SDS011;15383;48.408;9.968;2023-06-26T14:48:17;20.40;;;5.53;;
28070;SDS011;15383;48.408;9.968;2023-06-26T14:50:44;12.02;;;6.20;;
28070;SDS011;15383;48.408;9.968;2023-06-26T14:53:10;13.38;;;5.78;;
28070;SDS011;15383;48.408;9.968;2023-06-26T14:55:35;9.35;;;5.60;;
28070;SDS011;15383;48.408;9.968;2023-06-26T14:58:01;7.55;;;5.57;;
28070;SDS011;15383;48.408;9.968;2023-06-26T15:00:27;11.68;;;5.97;;
28070;SDS011;15383;48.408;9.968;2023-06-26T15:02:52;8.23;;;5.88;;
28070;SDS011;15383;48.408;9.968;2023-06-26T15:05:19;11.00;;;6.00;;
28070;SDS011;15383;48.408;9.968;2023-06-26T15:07:46;9.93;;;6.22;;
28070;SDS011;15383;48.408;9.968;2023-06-26T15:10:12;10.90;;;5.40;;
28070;SDS011;15383;48.408;9.968;2023-06-26T15:12:37;8.13;;;6.07;;